Time;durP1;ratioP1;P1;durP2;ratioP2;P2;SDS_P1;SDS_P2;PMS_P1;PMS_P2;Temp;Humidity;BMP_temperature;BMP_pressure;BME280_temperature;BME280_humidity;BME280_pressure;Samples;Min_cycle;Max_cycle;Signal;HPM_P1;HPM_P2
2022/12/24 00:00:59;;;;;;;1.30;1.20;;;14.10;99.90;;;;;;5114434;27;20317;-66
2022/12/24 00:03:26;;;;;;;1.17;1.07;;;14.00;99.90;;;;;;5116197;27;20209;-64
2022/12/24 00:05:53;;;;;;;0.90;0.90;;;14.00;99.90;;;;;;5114940;27;20204;-64
2022/12/24 00:08:20;;;;;;;1.30;1.20;;;14.10;99.90;;;;;;5114124;27;20883;-65
2022/12/24 00:10:50;;;;;;;1.20;1.10;;;14.10;99.90;;;;;;5113694;27;20603;-65
2022/12/24 00:13:19;;;;;;;1.30;1.20;;;14.20;99.90;;;;;;5112531;27;20274;-65
2022/12/24 00:15:46;;;;;;;1.23;1.13;;;14.20;99.90;;;;;;5112498;27;20224;-65
2022/12/24 00:18:13;;;;;;;1.10;1.10;;;14.20;99.90;;;;;;5114896;27;20225;-64
2022/12/24 00:20:40;;;;;;;1.33;1.20;;;14.20;99.90;;;;;;5113070;27;20276;-64
2022/12/24 00:23:07;;;;;;;1.50;1.40;;;14.30;99.90;;;;;;5115552;27;20237;-65
2022/12/24 00:25:34;;;;;;;1.30;1.20;;;14.30;99.90;;;;;;5114557;27;21204;-66
2022/12/24 00:28:01;;;;;;;1.20;1.10;;;14.30;99.90;;;;;;5116012;27;20204;-66
2022/12/24 00:30:29;;;;;;;1.40;1.30;;;14.30;99.90;;;;;;5114769;27;20225;-65
2022/12/24 00:32:56;;;;;;;1.50;1.40;;;14.30;99.90;;;;;;5107065;27;20213;-65
2022/12/24 00:35:23;;;;;;;1.93;1.17;;;14.20;99.90;;;;;;5107967;27;20703;-66
2022/12/24 00:37:51;;;;;;;1.57;1.43;;;14.30;99.90;;;;;;5114768;27;20218;-65
2022/12/24 00:40:18;;;;;;;1.10;1.10;;;14.30;99.90;;;;;;5117254;28;20229;-65
2022/12/24 00:42:45;;;;;;;1.60;1.50;;;14.30;99.90;;;;;;5109186;27;20206;-65
2022/12/24 00:45:12;;;;;;;1.30;1.20;;;14.30;99.90;;;;;;5115750;27;20217;-66
2022/12/24 00:47:41;;;;;;;1.23;1.13;;;14.20;99.90;;;;;;5125620;27;20193;-66
2022/12/24 00:50:09;;;;;;;1.40;1.30;;;14.20;99.90;;;;;;5121558;27;20214;-67
2022/12/24 00:52:36;;;;;;;1.53;1.43;;;14.20;99.90;;;;;;5134216;27;20212;-66
2022/12/24 00:55:03;;;;;;;1.33;1.23;;;14.20;99.90;;;;;;5133105;27;20209;-65
2022/12/24 00:57:31;;;;;;;1.27;1.17;;;14.20;99.90;;;;;;5121055;27;20227;-65
2022/12/24 00:59:58;;;;;;;1.90;1.20;;;14.30;99.90;;;;;;5124723;27;20229;-66
2022/12/24 01:02:25;;;;;;;1.63;1.30;;;14.30;99.90;;;;;;5121521;27;20671;-66
2022/12/24 01:05:11;;;;;;;0.93;0.93;;;14.30;99.90;;;;;;5124226;27;20211;-66
2022/12/24 01:07:39;;;;;;;1.80;1.37;;;14.30;99.90;;;;;;5104318;27;20197;-67
2022/12/24 01:10:08;;;;;;;1.67;1.40;;;14.30;99.90;;;;;;5123797;27;20221;-65
2022/12/24 01:12:35;;;;;;;1.10;1.10;;;14.30;99.90;;;;;;5120765;27;20666;-67
2022/12/24 01:15:03;;;;;;;1.20;1.10;;;14.30;99.90;;;;;;5125918;27;20207;-65
2022/12/24 01:17:31;;;;;;;1.37;1.27;;;14.20;99.90;;;;;;5117721;27;20227;-65
2022/12/24 01:19:59;;;;;;;1.30;1.20;;;14.30;99.90;;;;;;5125082;27;20232;-66
2022/12/24 01:22:27;;;;;;;1.40;1.30;;;14.30;99.90;;;;;;5120212;27;20206;-66
2022/12/24 01:24:54;;;;;;;1.10;1.10;;;14.30;99.90;;;;;;5125526;27;20608;-66
2022/12/24 01:27:20;;;;;;;1.40;1.30;;;14.20;99.90;;;;;;5121963;27;20819;-67
2022/12/24 01:29:47;;;;;;;1.83;1.40;;;14.30;99.90;;;;;;5119579;27;20245;-65
2022/12/24 01:32:14;;;;;;;1.23;1.13;;;14.20;99.90;;;;;;5122966;27;20770;-65
2022/12/24 01:34:41;;;;;;;1.03;1.03;;;14.30;99.90;;;;;;5117132;27;20208;-65
2022/12/24 01:37:09;;;;;;;1.23;1.17;;;14.30;99.90;;;;;;5118722;27;20297;-65
2022/12/24 01:39:36;;;;;;;0.93;0.93;;;14.30;99.90;;;;;;5119302;27;20220;-65
2022/12/24 01:44:55;;;;;;;1.23;1.13;;;14.20;99.90;;;;;;5122664;27;20208;-66
2022/12/24 01:47:25;;;;;;;1.40;1.30;;;14.20;99.90;;;;;;5126845;27;20217;-64
2022/12/24 01:49:56;;;;;;;1.13;1.03;;;14.20;99.90;;;;;;5101522;27;20249;-64
2022/12/24 01:52:29;;;;;;;1.30;1.10;;;14.20;99.90;;;;;;5106898;27;20209;-65
2022/12/24 01:55:00;;;;;;;1.27;1.17;;;14.10;99.90;;;;;;5101644;27;20297;-64
2022/12/24 01:57:30;;;;;;;1.13;1.10;;;14.10;99.90;;;;;;5106981;27;20205;-66
2022/12/24 02:00:01;;;;;;;1.40;1.30;;;14.20;99.90;;;;;;5100749;27;20221;-66
2022/12/24 02:02:28;;;;;;;1.30;1.20;;;14.20;99.90;;;;;;5098332;27;20201;-64
2022/12/24 02:05:00;;;;;;;1.30;1.20;;;14.20;99.90;;;;;;5096047;27;20213;-65
2022/12/24 02:07:29;;;;;;;0.93;0.93;;;14.10;99.90;;;;;;5100442;27;20224;-65
2022/12/24 02:09:58;;;;;;;1.00;1.00;;;14.10;99.90;;;;;;5097960;27;20228;-64
2022/12/24 02:12:27;;;;;;;1.50;1.40;;;14.10;99.90;;;;;;5114787;27;20285;-64
2022/12/24 02:14:54;;;;;;;1.00;1.00;;;14.10;99.90;;;;;;5120234;27;20201;-64
2022/12/24 02:17:29;;;;;;;1.50;1.23;;;14.10;99.90;;;;;;5118844;27;20225;-64
2022/12/24 02:20:31;;;;;;;2.13;1.20;;;14.10;99.90;;;;;;5118344;27;20752;-65
2022/12/24 02:23:20;;;;;;;1.07;1.07;;;14.10;99.90;;;;;;5116516;27;20242;-65
2022/12/24 02:26:06;;;;;;;1.07;1.00;;;14.00;99.90;;;;;;5112410;27;20201;-65
2022/12/24 02:28:54;;;;;;;1.30;1.20;;;14.00;99.90;;;;;;5111341;27;20677;-66
2022/12/24 02:31:26;;;;;;;1.27;1.17;;;14.00;99.90;;;;;;5120363;27;20202;-65
2022/12/24 02:34:03;;;;;;;1.40;1.30;;;13.90;99.90;;;;;;5125289;27;20303;-65
2022/12/24 02:36:35;;;;;;;1.30;1.20;;;14.00;99.90;;;;;;5117535;28;20228;-64
2022/12/24 02:39:04;;;;;;;1.17;1.13;;;14.00;99.90;;;;;;5123895;27;20201;-65
2022/12/24 02:42:04;;;;;;;1.33;1.23;;;13.90;99.90;;;;;;5117964;28;20641;-66
2022/12/24 02:44:33;;;;;;;1.50;1.40;;;13.90;99.90;;;;;;5109695;28;20205;-65
2022/12/24 02:47:04;;;;;;;1.43;1.33;;;13.80;99.90;;;;;;5124313;27;20641;-65
2022/12/24 02:49:31;;;;;;;1.63;1.53;;;13.80;99.90;;;;;;5104710;28;20224;-65
2022/12/24 02:51:58;;;;;;;1.40;1.30;;;13.80;99.90;;;;;;5125647;28;20266;-67
2022/12/24 02:54:25;;;;;;;1.50;1.40;;;13.80;99.90;;;;;;5131670;28;20227;-67
2022/12/24 02:57:08;;;;;;;1.17;1.13;;;13.80;99.90;;;;;;5123168;27;20231;-64
2022/12/24 02:59:56;;;;;;;1.50;1.40;;;13.80;99.90;;;;;;5112876;28;20221;-64
2022/12/24 03:02:34;;;;;;;1.37;1.27;;;13.80;99.90;;;;;;5110910;27;20285;-66
2022/12/24 03:05:12;;;;;;;1.40;1.30;;;13.80;99.90;;;;;;5113937;28;20662;-64
2022/12/24 03:07:45;;;;;;;1.43;1.33;;;13.80;99.90;;;;;;5115508;28;20194;-65
2022/12/24 03:10:20;;;;;;;1.33;1.30;;;13.80;99.90;;;;;;5116252;28;20214;-65
2022/12/24 03:12:50;;;;;;;1.80;1.60;;;13.90;99.90;;;;;;5116634;27;20201;-65
2022/12/24 03:15:20;;;;;;;1.43;1.33;;;13.80;99.90;;;;;;5129726;27;20208;-64
2022/12/24 03:17:50;;;;;;;1.60;1.33;;;13.80;99.90;;;;;;5129025;27;20222;-64
2022/12/24 03:20:22;;;;;;;1.40;1.30;;;13.80;99.90;;;;;;5136334;27;20312;-64
2022/12/24 03:22:49;;;;;;;1.40;1.30;;;13.80;99.90;;;;;;5126083;27;20683;-65
2022/12/24 03:25:17;;;;;;;1.40;1.33;;;13.80;99.90;;;;;;5133518;27;20207;-65
2022/12/24 03:27:44;;;;;;;1.50;1.40;;;13.80;99.90;;;;;;5126152;27;20686;-64
2022/12/24 03:30:17;;;;;;;1.30;1.20;;;13.80;99.90;;;;;;5124829;27;20305;-65
2022/12/24 03:32:46;;;;;;;1.60;1.50;;;13.80;99.90;;;;;;5120457;27;20205;-64
2022/12/24 03:35:14;;;;;;;1.63;1.53;;;13.80;99.90;;;;;;5121868;27;20202;-65
2022/12/24 03:37:41;;;;;;;1.57;1.40;;;13.80;99.90;;;;;;5129207;27;20221;-64
2022/12/24 03:40:09;;;;;;;1.43;1.30;;;13.80;99.90;;;;;;5124077;27;20224;-64
2022/12/24 03:42:36;;;;;;;1.73;1.30;;;13.70;99.90;;;;;;5122323;27;20206;-64
2022/12/24 03:45:03;;;;;;;1.30;1.20;;;13.70;99.90;;;;;;5125342;27;20204;-65
2022/12/24 03:47:31;;;;;;;0.90;0.90;;;13.60;99.90;;;;;;5127695;27;20193;-65
2022/12/24 03:49:58;;;;;;;1.27;1.17;;;13.60;99.90;;;;;;5124483;27;20217;-64
2022/12/24 03:52:27;;;;;;;1.03;1.03;;;13.60;99.90;;;;;;5123409;27;20646;-64
2022/12/24 03:54:54;;;;;;;0.90;0.90;;;13.70;99.90;;;;;;5125341;27;20282;-64
2022/12/24 03:57:20;;;;;;;1.00;1.00;;;13.70;99.90;;;;;;5122547;27;20272;-64
2022/12/24 03:59:47;;;;;;;1.47;1.37;;;13.70;99.90;;;;;;5125822;27;20221;-64
2022/12/24 04:02:14;;;;;;;1.50;1.37;;;13.70;99.90;;;;;;5121679;27;20289;-64
2022/12/24 04:04:41;;;;;;;1.37;1.30;;;13.70;99.90;;;;;;5125297;27;20821;-65
2022/12/24 04:07:08;;;;;;;1.20;1.10;;;13.70;99.90;;;;;;5124791;27;20620;-65
2022/12/24 04:09:37;;;;;;;1.43;1.33;;;13.70;99.90;;;;;;5126674;27;20247;-65
2022/12/24 04:12:04;;;;;;;1.00;1.00;;;13.70;99.90;;;;;;5126211;27;20252;-66
2022/12/24 04:14:31;;;;;;;1.10;1.00;;;13.60;99.90;;;;;;5124494;27;20203;-65
2022/12/24 04:16:57;;;;;;;1.33;1.23;;;13.70;99.90;;;;;;5124575;27;20221;-66
2022/12/24 04:19:24;;;;;;;1.40;1.17;;;13.70;99.90;;;;;;5125836;27;20223;-65
2022/12/24 04:21:51;;;;;;;1.03;1.03;;;13.60;99.90;;;;;;5123770;27;20228;-65
2022/12/24 04:24:18;;;;;;;0.90;0.90;;;13.70;99.90;;;;;;5122321;27;20202;-65
2022/12/24 04:26:46;;;;;;;1.10;1.00;;;13.70;99.90;;;;;;5124346;27;20209;-64
2022/12/24 04:29:13;;;;;;;1.40;1.27;;;13.70;99.90;;;;;;5124419;27;20217;-65
2022/12/24 04:31:40;;;;;;;0.97;0.97;;;13.70;99.90;;;;;;5125858;27;20208;-65
2022/12/24 04:34:07;;;;;;;1.00;1.00;;;13.70;99.90;;;;;;5124347;27;20205;-64
2022/12/24 04:36:34;;;;;;;1.00;1.00;;;13.60;99.90;;;;;;5125676;27;20753;-65
2022/12/24 04:39:00;;;;;;;1.30;1.20;;;13.70;99.90;;;;;;5126098;27;20221;-66
2022/12/24 04:41:27;;;;;;;1.30;1.20;;;13.60;99.90;;;;;;5122159;27;20216;-65
2022/12/24 04:43:56;;;;;;;1.40;1.30;;;13.60;99.90;;;;;;5124265;27;20220;-66
2022/12/24 04:46:25;;;;;;;1.10;1.10;;;13.80;99.90;;;;;;5123891;27;20267;-64
2022/12/24 04:48:53;;;;;;;1.20;1.10;;;13.60;99.90;;;;;;5118626;27;20262;-64
2022/12/24 04:51:20;;;;;;;1.20;1.10;;;13.60;99.90;;;;;;5117060;27;20210;-66
2022/12/24 04:53:47;;;;;;;1.00;1.00;;;13.60;99.90;;;;;;5137274;27;20202;-66
2022/12/24 04:56:16;;;;;;;1.30;1.20;;;13.60;99.90;;;;;;5128263;27;20220;-65
2022/12/24 04:58:44;;;;;;;1.50;1.40;;;13.60;99.90;;;;;;5124470;27;20679;-65
2022/12/24 05:01:15;;;;;;;1.03;1.03;;;13.60;99.90;;;;;;5124439;27;20223;-66
2022/12/24 05:03:42;;;;;;;1.47;1.30;;;13.60;99.90;;;;;;5118703;27;20663;-66
2022/12/24 05:06:13;;;;;;;1.40;1.30;;;13.60;99.90;;;;;;5124917;27;20575;-66
2022/12/24 05:08:40;;;;;;;1.00;1.00;;;13.60;99.90;;;;;;5129080;27;20193;-67
2022/12/24 05:11:07;;;;;;;1.07;1.07;;;13.60;99.90;;;;;;5124837;27;20303;-65
2022/12/24 05:13:34;;;;;;;1.80;1.50;;;13.70;99.90;;;;;;5124888;27;20292;-65
2022/12/24 05:16:01;;;;;;;1.30;1.20;;;13.70;99.90;;;;;;5127038;27;20206;-66
2022/12/24 05:18:29;;;;;;;1.30;1.20;;;13.70;99.90;;;;;;5111807;27;20223;-67
2022/12/24 05:20:56;;;;;;;1.20;1.10;;;13.80;99.90;;;;;;5124421;27;20320;-66
2022/12/24 05:26:24;;;;;;;1.27;1.17;;;13.70;99.90;;;;;;5123881;27;20203;-65
2022/12/24 05:28:53;;;;;;;1.50;1.40;;;13.70;99.90;;;;;;5124784;27;20225;-65
2022/12/24 05:31:20;;;;;;;1.57;1.47;;;13.60;99.90;;;;;;5122590;27;20216;-67
2022/12/24 05:33:49;;;;;;;1.40;1.30;;;13.70;99.90;;;;;;5124358;27;20206;-67
2022/12/24 05:36:16;;;;;;;1.73;1.60;;;13.70;99.90;;;;;;5124107;27;20622;-66
2022/12/24 05:38:43;;;;;;;1.83;1.50;;;13.70;99.90;;;;;;5124036;27;20575;-65
2022/12/24 05:41:10;;;;;;;2.87;1.50;;;13.60;99.90;;;;;;5116390;27;20225;-67
2022/12/24 05:43:37;;;;;;;1.60;1.50;;;13.60;99.90;;;;;;5124638;27;20233;-66
2022/12/24 05:46:06;;;;;;;1.80;1.40;;;13.60;99.90;;;;;;5123341;27;20224;-66
2022/12/24 05:48:34;;;;;;;1.33;1.23;;;13.60;99.90;;;;;;5125067;27;20207;-65
2022/12/24 05:51:04;;;;;;;1.50;1.30;;;13.70;99.90;;;;;;5124998;27;20221;-66
2022/12/24 05:53:31;;;;;;;1.30;1.20;;;13.60;99.90;;;;;;5113301;27;20201;-64
2022/12/24 05:56:03;;;;;;;1.40;1.30;;;13.60;99.90;;;;;;5122655;27;20216;-66
2022/12/24 05:58:30;;;;;;;1.50;1.13;;;13.60;99.90;;;;;;5114819;27;20205;-66
2022/12/24 06:00:57;;;;;;;2.47;1.70;;;13.60;99.90;;;;;;5118206;27;20706;-64
2022/12/24 06:03:25;;;;;;;1.77;1.40;;;13.60;99.90;;;;;;5117732;27;20259;-66
2022/12/24 06:05:59;;;;;;;1.23;1.13;;;13.70;99.90;;;;;;5113442;27;20198;-66
2022/12/24 06:08:27;;;;;;;1.77;1.50;;;13.60;99.90;;;;;;5118917;27;20196;-66
2022/12/24 06:10:56;;;;;;;1.90;1.60;;;13.60;99.90;;;;;;5117620;27;20218;-65
2022/12/24 06:13:23;;;;;;;1.50;1.40;;;13.60;99.90;;;;;;5117440;27;20232;-65
2022/12/24 06:15:49;;;;;;;1.50;1.30;;;13.60;99.90;;;;;;5123197;27;20735;-64
2022/12/24 06:18:16;;;;;;;1.40;1.30;;;13.50;99.90;;;;;;5127071;27;20221;-65
2022/12/24 06:20:43;;;;;;;1.97;1.83;;;13.50;99.90;;;;;;5112455;27;20692;-64
2022/12/24 06:23:10;;;;;;;1.77;1.67;;;13.50;99.90;;;;;;5111735;28;20194;-64
2022/12/24 06:25:38;;;;;;;1.50;1.40;;;13.50;99.90;;;;;;5113213;28;20523;-66
2022/12/24 06:28:05;;;;;;;1.93;1.50;;;13.40;99.90;;;;;;5114844;27;20190;-64
2022/12/24 06:30:32;;;;;;;1.50;1.40;;;13.40;99.90;;;;;;5134506;27;20228;-64
2022/12/24 06:32:59;;;;;;;2.20;2.00;;;13.30;99.90;;;;;;5127772;27;20216;-65
2022/12/24 06:35:26;;;;;;;1.10;1.10;;;13.30;99.90;;;;;;5136855;27;20198;-66
2022/12/24 06:37:52;;;;;;;1.60;1.50;;;13.30;99.90;;;;;;5131369;28;20206;-66
2022/12/24 06:40:19;;;;;;;1.50;1.40;;;13.20;99.90;;;;;;5137499;27;20225;-65
2022/12/24 06:42:47;;;;;;;1.80;1.53;;;13.20;99.90;;;;;;5134053;27;20269;-65
2022/12/24 06:45:14;;;;;;;1.57;1.47;;;13.20;99.90;;;;;;5121439;28;20200;-65
2022/12/24 06:47:41;;;;;;;1.50;1.40;;;13.20;99.90;;;;;;5128230;27;20199;-64
2022/12/24 06:50:09;;;;;;;1.70;1.60;;;13.20;99.90;;;;;;5125958;27;20656;-65
2022/12/24 06:52:36;;;;;;;1.93;1.73;;;13.20;99.90;;;;;;5129823;27;20234;-64
2022/12/24 06:55:03;;;;;;;1.50;1.40;;;13.20;99.90;;;;;;5123865;28;20204;-66
2022/12/24 06:57:31;;;;;;;1.47;1.37;;;13.20;99.90;;;;;;5134050;27;20579;-65
2022/12/24 06:59:59;;;;;;;2.00;1.67;;;13.20;99.90;;;;;;5127483;27;20218;-66
2022/12/24 07:02:26;;;;;;;1.67;1.50;;;13.20;99.90;;;;;;5126969;27;20201;-65
2022/12/24 07:04:53;;;;;;;1.60;1.50;;;13.30;99.90;;;;;;5126959;27;20198;-66
2022/12/24 07:07:20;;;;;;;1.60;1.50;;;13.30;99.90;;;;;;5126507;27;20312;-65
2022/12/24 07:09:46;;;;;;;1.60;1.50;;;13.30;99.90;;;;;;5128491;27;20222;-65
2022/12/24 07:12:13;;;;;;;1.90;1.70;;;13.40;99.90;;;;;;5125191;27;20202;-66
2022/12/24 07:14:40;;;;;;;1.60;1.50;;;13.40;99.90;;;;;;5126654;27;20570;-67
2022/12/24 07:17:08;;;;;;;2.07;1.87;;;13.40;99.90;;;;;;5120524;27;20193;-66
2022/12/24 07:19:35;;;;;;;1.67;1.57;;;13.40;99.90;;;;;;5121468;27;20304;-65
2022/12/24 07:22:02;;;;;;;1.70;1.57;;;13.40;99.90;;;;;;5121828;27;20666;-69
2022/12/24 07:24:29;;;;;;;1.67;1.43;;;13.40;99.90;;;;;;5120750;27;20613;-66
2022/12/24 07:26:56;;;;;;;2.13;1.80;;;13.50;99.90;;;;;;5133867;27;20232;-65
2022/12/24 07:29:23;;;;;;;2.43;1.70;;;13.40;99.90;;;;;;5131009;27;20745;-66
2022/12/24 07:31:49;;;;;;;1.73;1.40;;;13.40;99.90;;;;;;5133073;27;20292;-64
2022/12/24 07:34:18;;;;;;;1.40;1.30;;;13.40;99.90;;;;;;5131070;27;20197;-66
2022/12/24 07:36:45;;;;;;;1.50;1.40;;;13.40;99.90;;;;;;5127658;27;20292;-64
2022/12/24 07:39:11;;;;;;;1.50;1.40;;;13.40;99.90;;;;;;5125056;27;20233;-64
2022/12/24 07:41:38;;;;;;;1.73;1.30;;;13.50;99.90;;;;;;5125883;27;20197;-65
2022/12/24 07:44:05;;;;;;;1.40;1.30;;;13.50;99.90;;;;;;5118221;27;20625;-65
2022/12/24 07:46:32;;;;;;;1.50;1.40;;;13.50;99.90;;;;;;5121140;27;20203;-65
2022/12/24 07:48:59;;;;;;;1.63;1.53;;;13.50;99.90;;;;;;5121434;27;20207;-65
2022/12/24 07:51:27;;;;;;;2.17;1.60;;;13.50;99.90;;;;;;5113716;27;20213;-64
2022/12/24 07:53:54;;;;;;;1.43;1.33;;;13.50;99.90;;;;;;5114031;27;20576;-65
2022/12/24 07:56:21;;;;;;;1.50;1.40;;;13.60;99.90;;;;;;5117212;27;20200;-64
2022/12/24 07:58:47;;;;;;;2.13;1.63;;;13.60;99.90;;;;;;5124125;27;20224;-64
2022/12/24 08:01:14;;;;;;;1.60;1.50;;;13.50;99.90;;;;;;5114323;27;20535;-65
2022/12/24 08:03:41;;;;;;;1.30;1.30;;;13.60;99.90;;;;;;5124839;27;20284;-65
2022/12/24 08:06:08;;;;;;;1.67;1.57;;;13.60;99.90;;;;;;5120530;27;20285;-65
2022/12/24 08:08:37;;;;;;;1.80;1.67;;;13.50;99.90;;;;;;5112878;27;20200;-65
2022/12/24 08:11:06;;;;;;;2.70;1.90;;;13.50;99.90;;;;;;5107869;27;20224;-64
2022/12/24 08:13:33;;;;;;;1.53;1.43;;;13.50;99.90;;;;;;5107368;27;20293;-65
2022/12/24 08:16:00;;;;;;;1.50;1.40;;;13.50;99.90;;;;;;5110748;27;20200;-65
2022/12/24 08:18:27;;;;;;;1.33;1.23;;;13.60;99.90;;;;;;5116377;27;20221;-65
2022/12/24 08:20:54;;;;;;;1.50;1.40;;;13.50;99.90;;;;;;5118814;27;20217;-64
2022/12/24 08:23:21;;;;;;;1.43;1.33;;;13.60;99.90;;;;;;5116281;27;20288;-64
2022/12/24 08:25:49;;;;;;;1.50;1.40;;;13.50;99.90;;;;;;5109463;27;20225;-64
2022/12/24 08:28:19;;;;;;;1.67;1.57;;;13.50;99.90;;;;;;5117677;27;20198;-64
2022/12/24 08:30:49;;;;;;;1.60;1.50;;;13.50;99.90;;;;;;5124725;27;20766;-63
2022/12/24 08:33:16;;;;;;;1.53;1.40;;;13.70;99.90;;;;;;5117018;27;20573;-64
2022/12/24 08:35:47;;;;;;;1.60;1.50;;;13.60;99.90;;;;;;5115991;27;20613;-64
2022/12/24 08:38:15;;;;;;;1.73;1.63;;;13.60;99.90;;;;;;5117083;27;20226;-64
2022/12/24 08:40:42;;;;;;;1.50;1.40;;;13.60;99.90;;;;;;5114455;27;20683;-66
2022/12/24 08:43:10;;;;;;;2.03;1.80;;;13.60;99.90;;;;;;5114411;27;20198;-65
2022/12/24 08:45:39;;;;;;;1.77;1.50;;;13.60;99.90;;;;;;5111066;27;20206;-65
2022/12/24 08:48:07;;;;;;;1.97;1.60;;;13.60;99.90;;;;;;5105444;27;20277;-65
2022/12/24 08:50:34;;;;;;;1.80;1.40;;;13.60;99.90;;;;;;5111619;27;20750;-64
2022/12/24 08:53:01;;;;;;;2.33;1.80;;;13.60;99.90;;;;;;5109404;27;20199;-65
2022/12/24 08:55:28;;;;;;;1.80;1.60;;;13.60;99.90;;;;;;5110148;27;20690;-66
2022/12/24 08:57:55;;;;;;;1.73;1.63;;;13.70;99.90;;;;;;5119930;27;20270;-63
2022/12/24 09:00:23;;;;;;;2.50;1.50;;;13.70;99.90;;;;;;5108972;27;20316;-65
2022/12/24 09:02:50;;;;;;;1.97;1.50;;;13.80;99.90;;;;;;5101067;27;20199;-64
2022/12/24 09:05:17;;;;;;;2.07;1.67;;;13.90;99.90;;;;;;5101715;27;20292;-66
2022/12/24 09:07:44;;;;;;;1.70;1.60;;;14.00;99.90;;;;;;5099275;27;20745;-65
2022/12/24 09:10:11;;;;;;;1.57;1.47;;;14.10;99.90;;;;;;5109324;27;20718;-65
2022/12/24 09:12:38;;;;;;;1.43;1.33;;;14.20;99.90;;;;;;5114898;27;20206;-64
2022/12/24 09:15:07;;;;;;;1.87;1.70;;;14.30;99.90;;;;;;5101503;27;20608;-64
2022/12/24 09:17:36;;;;;;;1.67;1.57;;;14.30;99.90;;;;;;5123207;27;20206;-64
2022/12/24 09:20:03;;;;;;;2.10;1.90;;;14.40;99.90;;;;;;5125249;27;20222;-66
2022/12/24 09:22:30;;;;;;;1.63;1.53;;;14.30;99.90;;;;;;5113760;27;20318;-64
2022/12/24 09:24:57;;;;;;;3.17;1.60;;;14.40;99.90;;;;;;5118892;27;20211;-65
2022/12/24 09:27:23;;;;;;;1.20;1.20;;;14.60;99.90;;;;;;5116732;27;20197;-64
2022/12/24 09:29:50;;;;;;;1.57;1.40;;;14.70;99.90;;;;;;5115475;27;20225;-66
2022/12/24 09:32:17;;;;;;;1.57;1.47;;;14.60;99.90;;;;;;5125020;27;20209;-64
2022/12/24 09:34:45;;;;;;;1.73;1.50;;;14.50;99.90;;;;;;5115859;27;20269;-66
2022/12/24 09:37:12;;;;;;;1.40;1.30;;;14.40;99.90;;;;;;5129219;27;20600;-64
2022/12/24 09:39:39;;;;;;;1.50;1.40;;;14.50;99.90;;;;;;5121115;27;20300;-66
2022/12/24 09:42:27;;;;;;;1.80;1.30;;;14.30;99.90;;;;;;5114620;27;20667;-65
2022/12/24 09:44:59;;;;;;;2.70;1.50;;;14.20;99.90;;;;;;5122967;27;20225;-67
2022/12/24 09:47:29;;;;;;;1.70;1.60;;;14.20;99.90;;;;;;5119844;27;20190;-66
2022/12/24 09:50:01;;;;;;;1.60;1.50;;;14.10;99.90;;;;;;5117441;27;20220;-65
2022/12/24 09:52:34;;;;;;;1.40;1.30;;;14.10;99.90;;;;;;5122084;27;20441;-64
2022/12/24 09:55:07;;;;;;;1.40;1.30;;;14.10;99.90;;;;;;5119846;27;20198;-64
2022/12/24 09:57:38;;;;;;;1.40;1.30;;;14.10;99.90;;;;;;5109364;28;20203;-65
2022/12/24 10:00:16;;;;;;;1.50;1.40;;;14.10;99.90;;;;;;5121388;27;20221;-65
2022/12/24 10:02:43;;;;;;;1.70;1.60;;;14.20;99.90;;;;;;5115950;27;20197;-64
2022/12/24 10:05:14;;;;;;;1.37;1.27;;;14.30;99.90;;;;;;5114843;27;20354;-66
2022/12/24 10:07:50;;;;;;;1.47;1.37;;;14.30;99.90;;;;;;5096042;27;20201;-66
2022/12/24 10:10:26;;;;;;;1.63;1.33;;;14.50;99.90;;;;;;5123619;27;20278;-66
2022/12/24 10:13:03;;;;;;;1.50;1.40;;;14.50;99.90;;;;;;5109517;27;20207;-64
2022/12/24 10:15:35;;;;;;;1.20;1.10;;;14.40;99.90;;;;;;5103701;27;20201;-63
2022/12/24 10:18:16;;;;;;;1.60;1.50;;;14.40;99.90;;;;;;5107303;27;20269;-64
2022/12/24 10:20:51;;;;;;;1.40;1.30;;;14.30;99.90;;;;;;5105678;27;20540;-65
2022/12/24 10:23:23;;;;;;;1.30;1.20;;;14.30;99.90;;;;;;5105351;27;20201;-65
2022/12/24 10:26:00;;;;;;;1.50;1.40;;;14.30;99.90;;;;;;5104596;27;20567;-67
2022/12/24 10:28:32;;;;;;;1.40;1.30;;;14.30;99.90;;;;;;5111321;27;20211;-67
2022/12/24 10:31:04;;;;;;;1.73;1.50;;;14.30;99.90;;;;;;5114944;27;20580;-67
2022/12/24 10:33:37;;;;;;;1.10;1.10;;;14.30;99.90;;;;;;5107527;28;20232;-67
2022/12/24 10:36:10;;;;;;;1.40;1.30;;;14.30;99.90;;;;;;5120329;27;20198;-66
2022/12/24 10:38:37;;;;;;;1.80;1.53;;;14.40;99.90;;;;;;5110667;27;20205;-66
2022/12/24 10:41:04;;;;;;;1.40;1.30;;;14.40;99.90;;;;;;5108531;28;20249;-66
2022/12/24 10:43:31;;;;;;;1.47;1.37;;;14.40;99.90;;;;;;5109239;28;20209;-66
2022/12/24 10:46:01;;;;;;;1.40;1.30;;;14.50;99.90;;;;;;5112629;28;20632;-65
2022/12/24 10:48:32;;;;;;;1.43;1.33;;;14.50;99.90;;;;;;5109360;28;20225;-66
2022/12/24 10:51:03;;;;;;;1.43;1.33;;;14.40;99.90;;;;;;5122777;28;20310;-65
2022/12/24 10:53:41;;;;;;;1.60;1.50;;;14.50;99.90;;;;;;5109309;28;20206;-65
2022/12/24 10:56:11;;;;;;;1.90;1.80;;;14.60;99.90;;;;;;5128719;28;20368;-65
2022/12/24 10:58:44;;;;;;;1.60;1.50;;;14.60;99.90;;;;;;5129218;27;20233;-65
2022/12/24 11:01:11;;;;;;;1.60;1.50;;;14.70;99.90;;;;;;5130676;28;20225;-67
2022/12/24 11:03:41;;;;;;;1.40;1.30;;;14.70;99.90;;;;;;5133376;27;20292;-68
2022/12/24 11:06:11;;;;;;;1.83;1.73;;;14.70;99.90;;;;;;5113129;28;20217;-67
2022/12/24 11:08:42;;;;;;;1.40;1.30;;;14.80;99.90;;;;;;5110466;27;20696;-68
2022/12/24 11:11:13;;;;;;;1.70;1.60;;;14.70;99.90;;;;;;5110232;28;20275;-64
2022/12/24 11:13:43;;;;;;;2.07;1.87;;;14.70;99.90;;;;;;5112199;27;20208;-65
2022/12/24 11:16:17;;;;;;;1.67;1.57;;;14.80;99.90;;;;;;5117367;28;20217;-67
2022/12/24 11:18:47;;;;;;;1.80;1.60;;;14.80;99.90;;;;;;5110176;28;20559;-65
2022/12/24 11:21:23;;;;;;;1.50;1.40;;;14.80;99.90;;;;;;5110524;28;20317;-65
2022/12/24 11:23:54;;;;;;;1.50;1.40;;;14.90;99.90;;;;;;5108281;28;20747;-66
2022/12/24 11:26:23;;;;;;;1.57;1.47;;;15.00;99.90;;;;;;5118183;28;20233;-65
2022/12/24 11:29:14;;;;;;;2.23;1.50;;;15.10;99.90;;;;;;5104327;28;20211;-65
2022/12/24 11:31:41;;;;;;;1.50;1.37;;;15.00;99.90;;;;;;5118888;28;20220;-66
2022/12/24 11:34:27;;;;;;;1.30;1.20;;;15.00;99.90;;;;;;5108499;27;20692;-65
2022/12/24 11:36:56;;;;;;;1.43;1.33;;;15.00;99.90;;;;;;5102456;27;20202;-65
2022/12/24 11:39:26;;;;;;;1.60;1.50;;;15.20;99.90;;;;;;5112875;27;20366;-65
2022/12/24 11:41:54;;;;;;;1.87;1.77;;;15.10;99.90;;;;;;5115493;27;20275;-66
2022/12/24 11:44:25;;;;;;;1.40;1.30;;;15.10;99.90;;;;;;5122837;27;20646;-67
2022/12/24 11:46:55;;;;;;;1.20;1.20;;;15.10;99.90;;;;;;5125013;27;20604;-64
2022/12/24 11:49:28;;;;;;;1.50;1.13;;;15.20;99.90;;;;;;5122373;27;20258;-66
2022/12/24 11:52:29;;;;;;;1.20;1.10;;;15.10;99.90;;;;;;5114009;27;20198;-65
2022/12/24 11:55:17;;;;;;;1.30;1.20;;;15.10;99.90;;;;;;5116525;27;20208;-64
2022/12/24 11:57:52;;;;;;;1.10;1.10;;;15.10;99.90;;;;;;5112373;27;20678;-64
2022/12/24 12:00:19;;;;;;;1.40;1.30;;;15.00;99.90;;;;;;5114575;27;20225;-65
2022/12/24 12:02:49;;;;;;;1.47;1.30;;;15.00;99.90;;;;;;5117473;27;20728;-64
2022/12/24 12:05:19;;;;;;;1.43;1.30;;;15.00;99.90;;;;;;5123279;27;20197;-64
2022/12/24 12:07:51;;;;;;;1.30;1.20;;;15.00;99.90;;;;;;5117772;27;20580;-65
2022/12/24 12:10:22;;;;;;;1.30;1.20;;;15.00;99.90;;;;;;5122899;27;20918;-65
2022/12/24 12:12:59;;;;;;;1.30;1.20;;;15.10;99.90;;;;;;5124677;27;20283;-65
2022/12/24 12:15:29;;;;;;;1.30;1.20;;;15.10;99.90;;;;;;5124779;27;20669;-67
2022/12/24 12:18:05;;;;;;;1.63;1.50;;;15.10;99.90;;;;;;5125067;27;20570;-67
2022/12/24 12:20:35;;;;;;;1.40;1.30;;;15.10;99.90;;;;;;5118800;27;20217;-67
2022/12/24 12:23:09;;;;;;;1.53;1.23;;;15.00;99.90;;;;;;5126324;27;20711;-66
2022/12/24 12:25:44;;;;;;;1.37;1.27;;;15.00;99.90;;;;;;5117164;27;20198;-66
2022/12/24 12:28:16;;;;;;;1.30;1.20;;;15.00;99.90;;;;;;5128961;27;20200;-65
2022/12/24 12:30:44;;;;;;;1.50;1.40;;;15.00;99.90;;;;;;5122463;27;20224;-64
2022/12/24 12:33:19;;;;;;;1.10;1.10;;;15.00;99.90;;;;;;5121733;27;20227;-64
2022/12/24 12:35:49;;;;;;;1.43;1.33;;;15.00;99.90;;;;;;5124610;27;20193;-65
2022/12/24 12:38:20;;;;;;;1.27;1.13;;;14.90;99.90;;;;;;5122544;27;20209;-64
2022/12/24 12:41:06;;;;;;;1.47;1.37;;;14.80;99.90;;;;;;5124384;27;20591;-64
2022/12/24 12:43:58;;;;;;;1.57;1.40;;;14.80;99.90;;;;;;5110118;27;20208;-64
2022/12/24 12:46:35;;;;;;;1.57;1.20;;;14.70;99.90;;;;;;5123263;27;20189;-64
2022/12/24 12:49:17;;;;;;;1.57;1.40;;;14.80;99.90;;;;;;5122989;27;20201;-64
2022/12/24 12:51:50;;;;;;;1.20;1.10;;;14.90;99.90;;;;;;5111553;27;20225;-64
2022/12/24 12:54:32;;;;;;;1.10;1.00;;;14.90;99.90;;;;;;5124625;27;20196;-64
2022/12/24 12:57:06;;;;;;;2.17;1.63;;;14.90;99.90;;;;;;5130807;28;20265;-63
2022/12/24 12:59:38;;;;;;;1.20;1.10;;;14.90;99.90;;;;;;5123091;27;20237;-67
2022/12/24 13:02:23;;;;;;;1.20;1.10;;;15.00;99.90;;;;;;5128414;27;20289;-65
2022/12/24 13:05:14;;;;;;;1.40;1.30;;;15.20;99.90;;;;;;5123086;27;20233;-66
2022/12/24 13:08:11;;;;;;;1.30;1.20;;;15.00;99.90;;;;;;5118399;27;20613;-65